sensor_id;sensor_type;location;lat;lon;timestamp;P1;durP1;ratioP1;P2;durP2;ratioP2
5774;SDS011;2913;51.120;6.772;2022-08-01T00:01:57;13.13;;;4.00;;
5774;SDS011;2913;51.120;6.772;2022-08-01T00:04:23;12.95;;;4.25;;
5774;SDS011;2913;51.120;6.772;2022-08-01T00:06:51;11.20;;;4.95;;
5774;SDS011;2913;51.120;6.772;2022-08-01T00:09:17;9.52;;;4.00;;
5774;SDS011;2913;51.120;6.772;2022-08-01T00:11:42;9.98;;;4.70;;
5774;SDS011;2913;51.120;6.772;2022-08-01T00:14:08;8.13;;;4.20;;
5774;SDS011;2913;51.120;6.772;2022-08-01T00:16:39;8.80;;;4.15;;
5774;SDS011;2913;51.120;6.772;2022-08-01T00:19:07;8.60;;;4.35;;
5774;SDS011;2913;51.120;6.772;2022-08-01T00:21:32;14.98;;;4.60;;
5774;SDS011;2913;51.120;6.772;2022-08-01T00:24:00;6.50;;;3.90;;
5774;SDS011;2913;51.120;6.772;2022-08-01T00:26:26;8.00;;;3.30;;
5774;SDS011;2913;51.120;6.772;2022-08-01T00:28:52;11.35;;;3.90;;
5774;SDS011;2913;51.120;6.772;2022-08-01T00:31:17;7.93;;;3.80;;
5774;SDS011;2913;51.120;6.772;2022-08-01T00:33:45;10.10;;;4.40;;
5774;SDS011;2913;51.120;6.772;2022-08-01T00:36:13;9.75;;;4.03;;
5774;SDS011;2913;51.120;6.772;2022-08-01T00:38:38;12.18;;;5.03;;
5774;SDS011;2913;51.120;6.772;2022-08-01T00:41:04;8.45;;;4.15;;
5774;SDS011;2913;51.120;6.772;2022-08-01T00:43:34;9.95;;;4.28;;
5774;SDS011;2913;51.120;6.772;2022-08-01T00:46:00;12.52;;;5.05;;
5774;SDS011;2913;51.120;6.772;2022-08-01T00:48:25;11.23;;;4.38;;
5774;SDS011;2913;51.120;6.772;2022-08-01T00:50:53;11.20;;;4.10;;
5774;SDS011;2913;51.120;6.772;2022-08-01T00:53:19;12.07;;;4.18;;
5774;SDS011;2913;51.120;6.772;2022-08-01T00:55:47;10.52;;;4.47;;
5774;SDS011;2913;51.120;6.772;2022-08-01T00:58:15;8.70;;;4.65;;
5774;SDS011;2913;51.120;6.772;2022-08-01T01:00:43;10.20;;;4.65;;
5774;SDS011;2913;51.120;6.772;2022-08-01T01:03:09;10.05;;;4.38;;
5774;SDS011;2913;51.120;6.772;2022-08-01T01:05:45;9.05;;;4.85;;
5774;SDS011;2913;51.120;6.772;2022-08-01T01:08:24;10.13;;;4.60;;
5774;SDS011;2913;51.120;6.772;2022-08-01T01:11:32;10.70;;;4.50;;
5774;SDS011;2913;51.120;6.772;2022-08-01T01:13:55;14.15;;;4.57;;
5774;SDS011;2913;51.120;6.772;2022-08-01T01:16:25;11.52;;;4.95;;
5774;SDS011;2913;51.120;6.772;2022-08-01T01:18:54;10.55;;;4.28;;
5774;SDS011;2913;51.120;6.772;2022-08-01T01:24:35;23.55;;;5.00;;
5774;SDS011;2913;51.120;6.772;2022-08-01T01:27:16;12.73;;;4.53;;
5774;SDS011;2913;51.120;6.772;2022-08-01T01:30:03;9.63;;;4.28;;
5774;SDS011;2913;51.120;6.772;2022-08-01T01:32:33;11.35;;;5.20;;
5774;SDS011;2913;51.120;6.772;2022-08-01T01:35:10;11.88;;;4.82;;
5774;SDS011;2913;51.120;6.772;2022-08-01T01:38:04;15.38;;;4.97;;
5774;SDS011;2913;51.120;6.772;2022-08-01T01:40:47;12.07;;;4.68;;
5774;SDS011;2913;51.120;6.772;2022-08-01T01:43:18;11.30;;;4.10;;
5774;SDS011;2913;51.120;6.772;2022-08-01T01:45:45;13.52;;;4.75;;
5774;SDS011;2913;51.120;6.772;2022-08-01T01:48:16;9.60;;;4.57;;
5774;SDS011;2913;51.120;6.772;2022-08-01T01:50:47;17.13;;;4.95;;
5774;SDS011;2913;51.120;6.772;2022-08-01T01:53:17;9.13;;;6.03;;
5774;SDS011;2913;51.120;6.772;2022-08-01T01:55:45;13.68;;;4.63;;
5774;SDS011;2913;51.120;6.772;2022-08-01T01:58:17;10.40;;;4.40;;
5774;SDS011;2913;51.120;6.772;2022-08-01T02:00:44;8.73;;;4.28;;
5774;SDS011;2913;51.120;6.772;2022-08-01T02:03:12;13.82;;;4.38;;
5774;SDS011;2913;51.120;6.772;2022-08-01T02:05:43;8.60;;;4.10;;
5774;SDS011;2913;51.120;6.772;2022-08-01T02:08:13;10.38;;;4.15;;
5774;SDS011;2913;51.120;6.772;2022-08-01T02:10:44;13.20;;;4.60;;
5774;SDS011;2913;51.120;6.772;2022-08-01T02:13:33;13.45;;;4.18;;
5774;SDS011;2913;51.120;6.772;2022-08-01T02:16:01;12.25;;;5.00;;
5774;SDS011;2913;51.120;6.772;2022-08-01T02:18:28;7.38;;;4.55;;
5774;SDS011;2913;51.120;6.772;2022-08-01T02:20:55;13.32;;;4.32;;
5774;SDS011;2913;51.120;6.772;2022-08-01T02:23:27;8.23;;;4.00;;
5774;SDS011;2913;51.120;6.772;2022-08-01T02:25:57;11.85;;;4.60;;
5774;SDS011;2913;51.120;6.772;2022-08-01T02:28:25;11.43;;;4.47;;
5774;SDS011;2913;51.120;6.772;2022-08-01T02:31:03;11.77;;;4.45;;
5774;SDS011;2913;51.120;6.772;2022-08-01T02:33:35;8.60;;;4.63;;
5774;SDS011;2913;51.120;6.772;2022-08-01T02:36:03;12.25;;;5.13;;
5774;SDS011;2913;51.120;6.772;2022-08-01T02:38:32;11.00;;;4.95;;
5774;SDS011;2913;51.120;6.772;2022-08-01T02:41:03;16.80;;;4.95;;
5774;SDS011;2913;51.120;6.772;2022-08-01T02:43:38;15.63;;;5.32;;
5774;SDS011;2913;51.120;6.772;2022-08-01T02:46:11;9.85;;;5.03;;
5774;SDS011;2913;51.120;6.772;2022-08-01T02:48:42;11.02;;;5.32;;
5774;SDS011;2913;51.120;6.772;2022-08-01T02:51:10;14.10;;;5.03;;
5774;SDS011;2913;51.120;6.772;2022-08-01T02:53:38;12.73;;;4.95;;
5774;SDS011;2913;51.120;6.772;2022-08-01T02:56:05;12.43;;;5.20;;
5774;SDS011;2913;51.120;6.772;2022-08-01T02:58:35;15.07;;;5.20;;
5774;SDS011;2913;51.120;6.772;2022-08-01T03:01:03;9.25;;;4.90;;
5774;SDS011;2913;51.120;6.772;2022-08-01T03:03:30;13.20;;;5.20;;
5774;SDS011;2913;51.120;6.772;2022-08-01T03:05:57;13.05;;;4.63;;
5774;SDS011;2913;51.120;6.772;2022-08-01T03:08:26;10.90;;;5.28;;
5774;SDS011;2913;51.120;6.772;2022-08-01T03:10:55;16.17;;;5.30;;
5774;SDS011;2913;51.120;6.772;2022-08-01T03:13:21;16.13;;;5.20;;
5774;SDS011;2913;51.120;6.772;2022-08-01T03:15:49;9.85;;;5.13;;
5774;SDS011;2913;51.120;6.772;2022-08-01T03:18:17;20.02;;;6.15;;
5774;SDS011;2913;51.120;6.772;2022-08-01T03:20:46;16.27;;;5.70;;
5774;SDS011;2913;51.120;6.772;2022-08-01T03:23:17;15.32;;;6.43;;
5774;SDS011;2913;51.120;6.772;2022-08-01T03:25:43;14.15;;;5.75;;
5774;SDS011;2913;51.120;6.772;2022-08-01T03:28:11;14.30;;;6.47;;
5774;SDS011;2913;51.120;6.772;2022-08-01T03:30:38;23.17;;;7.35;;
5774;SDS011;2913;51.120;6.772;2022-08-01T03:33:05;15.73;;;6.65;;
5774;SDS011;2913;51.120;6.772;2022-08-01T03:35:36;15.75;;;6.85;;
5774;SDS011;2913;51.120;6.772;2022-08-01T03:38:05;14.43;;;6.80;;
5774;SDS011;2913;51.120;6.772;2022-08-01T03:40:35;15.50;;;7.10;;
5774;SDS011;2913;51.120;6.772;2022-08-01T03:43:11;15.43;;;7.50;;
5774;SDS011;2913;51.120;6.772;2022-08-01T03:46:01;18.50;;;7.32;;
5774;SDS011;2913;51.120;6.772;2022-08-01T03:48:33;11.30;;;6.97;;
5774;SDS011;2913;51.120;6.772;2022-08-01T03:51:09;22.08;;;7.50;;
5774;SDS011;2913;51.120;6.772;2022-08-01T03:53:37;13.75;;;7.40;;
5774;SDS011;2913;51.120;6.772;2022-08-01T03:56:05;23.55;;;8.65;;
5774;SDS011;2913;51.120;6.772;2022-08-01T03:58:36;20.70;;;8.07;;
5774;SDS011;2913;51.120;6.772;2022-08-01T04:01:05;24.27;;;9.35;;
5774;SDS011;2913;51.120;6.772;2022-08-01T04:03:34;25.88;;;9.50;;
5774;SDS011;2913;51.120;6.772;2022-08-01T04:06:03;20.10;;;9.50;;
5774;SDS011;2913;51.120;6.772;2022-08-01T04:08:38;22.30;;;9.25;;
5774;SDS011;2913;51.120;6.772;2022-08-01T04:11:08;19.60;;;9.15;;
5774;SDS011;2913;51.120;6.772;2022-08-01T04:13:34;23.00;;;9.38;;
5774;SDS011;2913;51.120;6.772;2022-08-01T04:16:00;34.85;;;9.85;;
5774;SDS011;2913;51.120;6.772;2022-08-01T04:18:28;26.98;;;10.95;;
5774;SDS011;2913;51.120;6.772;2022-08-01T04:20:53;19.45;;;10.07;;
5774;SDS011;2913;51.120;6.772;2022-08-01T04:23:23;23.73;;;10.35;;
5774;SDS011;2913;51.120;6.772;2022-08-01T04:25:50;20.25;;;10.10;;
5774;SDS011;2913;51.120;6.772;2022-08-01T04:28:17;25.42;;;11.13;;
5774;SDS011;2913;51.120;6.772;2022-08-01T04:30:46;32.75;;;11.45;;
5774;SDS011;2913;51.120;6.772;2022-08-01T04:33:14;24.52;;;11.80;;
5774;SDS011;2913;51.120;6.772;2022-08-01T04:35:41;25.88;;;10.98;;
5774;SDS011;2913;51.120;6.772;2022-08-01T04:38:10;27.98;;;12.32;;
5774;SDS011;2913;51.120;6.772;2022-08-01T04:40:38;29.15;;;12.48;;
5774;SDS011;2913;51.120;6.772;2022-08-01T04:43:07;30.90;;;12.65;;
5774;SDS011;2913;51.120;6.772;2022-08-01T04:45:35;27.05;;;11.40;;
5774;SDS011;2913;51.120;6.772;2022-08-01T04:48:01;29.63;;;11.52;;
5774;SDS011;2913;51.120;6.772;2022-08-01T04:50:34;32.38;;;12.43;;
5774;SDS011;2913;51.120;6.772;2022-08-01T04:53:11;36.15;;;12.43;;
5774;SDS011;2913;51.120;6.772;2022-08-01T04:55:38;27.58;;;11.43;;
5774;SDS011;2913;51.120;6.772;2022-08-01T04:58:06;34.92;;;12.20;;
5774;SDS011;2913;51.120;6.772;2022-08-01T05:00:37;34.80;;;12.55;;
5774;SDS011;2913;51.120;6.772;2022-08-01T05:03:02;31.23;;;12.00;;
5774;SDS011;2913;51.120;6.772;2022-08-01T05:05:30;25.95;;;11.57;;
5774;SDS011;2913;51.120;6.772;2022-08-01T05:07:59;29.50;;;13.00;;
5774;SDS011;2913;51.120;6.772;2022-08-01T05:10:26;28.77;;;12.65;;
5774;SDS011;2913;51.120;6.772;2022-08-01T05:12:52;27.55;;;12.48;;
5774;SDS011;2913;51.120;6.772;2022-08-01T05:15:18;27.63;;;12.65;;
5774;SDS011;2913;51.120;6.772;2022-08-01T05:17:47;32.47;;;12.88;;
5774;SDS011;2913;51.120;6.772;2022-08-01T05:20:15;34.33;;;14.10;;
5774;SDS011;2913;51.120;6.772;2022-08-01T05:22:45;26.17;;;13.48;;
5774;SDS011;2913;51.120;6.772;2022-08-01T05:25:11;31.77;;;14.68;;
5774;SDS011;2913;51.120;6.772;2022-08-01T05:27:39;32.42;;;15.23;;
5774;SDS011;2913;51.120;6.772;2022-08-01T05:30:09;33.25;;;14.23;;
5774;SDS011;2913;51.120;6.772;2022-08-01T05:32:35;32.03;;;14.43;;
5774;SDS011;2913;51.120;6.772;2022-08-01T05:35:03;35.55;;;13.75;;
5774;SDS011;2913;51.120;6.772;2022-08-01T05:37:29;35.63;;;13.45;;
5774;SDS011;2913;51.120;6.772;2022-08-01T05:39:55;35.60;;;14.27;;
5774;SDS011;2913;51.120;6.772;2022-08-01T05:42:20;38.95;;;14.82;;
5774;SDS011;2913;51.120;6.772;2022-08-01T05:44:46;29.38;;;13.40;;
5774;SDS011;2913;51.120;6.772;2022-08-01T05:47:12;29.02;;;13.70;;
5774;SDS011;2913;51.120;6.772;2022-08-01T05:49:38;31.30;;;13.50;;
5774;SDS011;2913;51.120;6.772;2022-08-01T05:52:04;30.38;;;14.23;;
5774;SDS011;2913;51.120;6.772;2022-08-01T05:54:30;33.83;;;13.95;;
5774;SDS011;2913;51.120;6.772;2022-08-01T05:56:56;30.67;;;13.18;;
5774;SDS011;2913;51.120;6.772;2022-08-01T05:59:26;33.42;;;14.75;;
5774;SDS011;2913;51.120;6.772;2022-08-01T06:01:52;34.17;;;15.63;;
5774;SDS011;2913;51.120;6.772;2022-08-01T06:04:18;36.25;;;14.75;;
5774;SDS011;2913;51.120;6.772;2022-08-01T06:06:46;31.50;;;15.38;;
5774;SDS011;2913;51.120;6.772;2022-08-01T06:09:12;45.10;;;18.90;;
5774;SDS011;2913;51.120;6.772;2022-08-01T06:11:38;35.25;;;14.57;;
5774;SDS011;2913;51.120;6.772;2022-08-01T06:14:04;42.30;;;17.08;;
5774;SDS011;2913;51.120;6.772;2022-08-01T06:16:29;40.97;;;15.52;;
5774;SDS011;2913;51.120;6.772;2022-08-01T06:18:55;39.33;;;16.23;;
5774;SDS011;2913;51.120;6.772;2022-08-01T06:21:23;41.20;;;15.15;;
5774;SDS011;2913;51.120;6.772;2022-08-01T06:23:49;36.33;;;15.10;;
5774;SDS011;2913;51.120;6.772;2022-08-01T06:26:17;33.30;;;14.50;;
5774;SDS011;2913;51.120;6.772;2022-08-01T06:28:43;31.58;;;15.80;;
5774;SDS011;2913;51.120;6.772;2022-08-01T06:31:09;31.40;;;15.15;;
5774;SDS011;2913;51.120;6.772;2022-08-01T06:33:38;39.03;;;14.35;;
5774;SDS011;2913;51.120;6.772;2022-08-01T06:36:06;28.27;;;14.07;;
5774;SDS011;2913;51.120;6.772;2022-08-01T06:38:32;30.48;;;14.23;;
5774;SDS011;2913;51.120;6.772;2022-08-01T06:41:00;33.83;;;13.73;;
5774;SDS011;2913;51.120;6.772;2022-08-01T06:43:28;25.90;;;13.35;;
5774;SDS011;2913;51.120;6.772;2022-08-01T06:45:56;30.50;;;13.35;;
5774;SDS011;2913;51.120;6.772;2022-08-01T06:48:22;23.92;;;13.07;;
5774;SDS011;2913;51.120;6.772;2022-08-01T06:50:47;23.70;;;12.45;;
5774;SDS011;2913;51.120;6.772;2022-08-01T06:53:13;30.40;;;12.20;;
5774;SDS011;2913;51.120;6.772;2022-08-01T06:55:39;25.55;;;11.48;;
5774;SDS011;2913;51.120;6.772;2022-08-01T06:58:04;29.50;;;12.55;;
5774;SDS011;2913;51.120;6.772;2022-08-01T07:00:32;32.35;;;12.95;;
5774;SDS011;2913;51.120;6.772;2022-08-01T07:02:58;21.60;;;12.07;;
5774;SDS011;2913;51.120;6.772;2022-08-01T07:05:24;24.02;;;12.13;;
5774;SDS011;2913;51.120;6.772;2022-08-01T07:07:50;23.95;;;11.48;;
5774;SDS011;2913;51.120;6.772;2022-08-01T07:10:16;25.20;;;13.48;;
5774;SDS011;2913;51.120;6.772;2022-08-01T07:12:42;28.83;;;12.23;;
5774;SDS011;2913;51.120;6.772;2022-08-01T07:15:08;30.23;;;13.18;;
5774;SDS011;2913;51.120;6.772;2022-08-01T07:17:39;25.02;;;13.02;;
5774;SDS011;2913;51.120;6.772;2022-08-01T07:20:08;27.52;;;14.25;;
5774;SDS011;2913;51.120;6.772;2022-08-01T07:22:37;26.60;;;12.68;;
5774;SDS011;2913;51.120;6.772;2022-08-01T07:25:07;28.08;;;13.82;;
5774;SDS011;2913;51.120;6.772;2022-08-01T07:27:35;29.60;;;14.45;;
5774;SDS011;2913;51.120;6.772;2022-08-01T07:30:04;35.15;;;13.60;;
5774;SDS011;2913;51.120;6.772;2022-08-01T07:32:30;29.40;;;13.77;;
5774;SDS011;2913;51.120;6.772;2022-08-01T07:34:56;28.17;;;13.18;;
5774;SDS011;2913;51.120;6.772;2022-08-01T07:37:24;27.85;;;11.27;;
5774;SDS011;2913;51.120;6.772;2022-08-01T07:39:49;26.10;;;12.35;;
5774;SDS011;2913;51.120;6.772;2022-08-01T07:42:15;24.70;;;12.35;;
5774;SDS011;2913;51.120;6.772;2022-08-01T07:44:41;29.00;;;12.18;;
5774;SDS011;2913;51.120;6.772;2022-08-01T07:47:06;22.92;;;11.55;;
5774;SDS011;2913;51.120;6.772;2022-08-01T07:49:32;24.23;;;10.95;;
5774;SDS011;2913;51.120;6.772;2022-08-01T07:51:58;20.67;;;10.13;;
5774;SDS011;2913;51.120;6.772;2022-08-01T07:54:26;18.85;;;10.00;;
5774;SDS011;2913;51.120;6.772;2022-08-01T07:56:54;24.17;;;10.00;;
5774;SDS011;2913;51.120;6.772;2022-08-01T07:59:20;27.33;;;11.48;;
5774;SDS011;2913;51.120;6.772;2022-08-01T08:01:49;22.73;;;11.23;;
5774;SDS011;2913;51.120;6.772;2022-08-01T08:04:16;26.15;;;10.32;;
5774;SDS011;2913;51.120;6.772;2022-08-01T08:06:42;19.52;;;10.38;;
5774;SDS011;2913;51.120;6.772;2022-08-01T08:09:08;18.65;;;9.43;;
5774;SDS011;2913;51.120;6.772;2022-08-01T08:11:36;19.27;;;10.20;;
5774;SDS011;2913;51.120;6.772;2022-08-01T08:14:02;20.50;;;10.32;;
5774;SDS011;2913;51.120;6.772;2022-08-01T08:16:27;20.38;;;10.10;;
5774;SDS011;2913;51.120;6.772;2022-08-01T08:18:55;26.52;;;9.35;;
5774;SDS011;2913;51.120;6.772;2022-08-01T08:21:21;22.73;;;9.48;;
5774;SDS011;2913;51.120;6.772;2022-08-01T08:23:46;22.27;;;10.15;;
5774;SDS011;2913;51.120;6.772;2022-08-01T08:26:31;16.58;;;8.57;;
5774;SDS011;2913;51.120;6.772;2022-08-01T08:28:59;14.80;;;7.47;;
5774;SDS011;2913;51.120;6.772;2022-08-01T08:31:24;20.95;;;9.07;;
5774;SDS011;2913;51.120;6.772;2022-08-01T08:33:50;22.50;;;8.57;;
5774;SDS011;2913;51.120;6.772;2022-08-01T08:36:16;15.95;;;7.47;;
5774;SDS011;2913;51.120;6.772;2022-08-01T08:38:41;18.92;;;8.93;;
5774;SDS011;2913;51.120;6.772;2022-08-01T08:41:08;23.45;;;9.85;;
5774;SDS011;2913;51.120;6.772;2022-08-01T08:43:34;19.60;;;8.68;;
5774;SDS011;2913;51.120;6.772;2022-08-01T08:46:00;23.13;;;9.02;;
5774;SDS011;2913;51.120;6.772;2022-08-01T08:48:26;19.15;;;8.93;;
5774;SDS011;2913;51.120;6.772;2022-08-01T08:50:52;19.08;;;8.52;;
5774;SDS011;2913;51.120;6.772;2022-08-01T08:53:21;29.70;;;10.98;;
5774;SDS011;2913;51.120;6.772;2022-08-01T08:55:47;18.35;;;9.15;;
5774;SDS011;2913;51.120;6.772;2022-08-01T08:58:13;17.27;;;8.30;;
5774;SDS011;2913;51.120;6.772;2022-08-01T09:00:45;22.67;;;8.23;;
5774;SDS011;2913;51.120;6.772;2022-08-01T09:03:11;11.65;;;6.90;;
5774;SDS011;2913;51.120;6.772;2022-08-01T09:05:39;15.35;;;7.05;;
5774;SDS011;2913;51.120;6.772;2022-08-01T09:08:06;17.58;;;7.40;;
5774;SDS011;2913;51.120;6.772;2022-08-01T09:10:32;15.93;;;7.07;;
5774;SDS011;2913;51.120;6.772;2022-08-01T09:13:14;12.45;;;6.90;;
5774;SDS011;2913;51.120;6.772;2022-08-01T09:15:44;9.83;;;6.27;;
5774;SDS011;2913;51.120;6.772;2022-08-01T09:18:30;14.02;;;6.97;;
5774;SDS011;2913;51.120;6.772;2022-08-01T09:23:34;17.73;;;6.35;;
5774;SDS011;2913;51.120;6.772;2022-08-01T09:26:05;9.57;;;6.20;;
5774;SDS011;2913;51.120;6.772;2022-08-01T09:28:33;11.80;;;6.07;;
5774;SDS011;2913;51.120;6.772;2022-08-01T09:31:05;10.05;;;6.30;;
5774;SDS011;2913;51.120;6.772;2022-08-01T09:39:36;15.00;;;6.28;;
5774;SDS011;2913;51.120;6.772;2022-08-01T09:44:47;14.30;;;6.53;;
5774;SDS011;2913;51.120;6.772;2022-08-01T09:47:16;14.90;;;6.40;;
5774;SDS011;2913;51.120;6.772;2022-08-01T09:49:52;10.82;;;6.35;;
5774;SDS011;2913;51.120;6.772;2022-08-01T09:52:20;12.85;;;6.15;;
5774;SDS011;2913;51.120;6.772;2022-08-01T09:54:52;10.75;;;6.20;;
5774;SDS011;2913;51.120;6.772;2022-08-01T09:57:20;12.27;;;6.40;;
5774;SDS011;2913;51.120;6.772;2022-08-01T09:59:49;13.98;;;5.97;;
5774;SDS011;2913;51.120;6.772;2022-08-01T10:02:33;10.68;;;5.55;;
5774;SDS011;2913;51.120;6.772;2022-08-01T10:05:06;12.90;;;6.53;;
5774;SDS011;2913;51.120;6.772;2022-08-01T10:07:34;11.90;;;6.13;;
5774;SDS011;2913;51.120;6.772;2022-08-01T10:10:10;11.32;;;5.97;;
5774;SDS011;2913;51.120;6.772;2022-08-01T10:12:37;12.23;;;5.85;;
5774;SDS011;2913;51.120;6.772;2022-08-01T10:15:07;9.65;;;5.57;;
5774;SDS011;2913;51.120;6.772;2022-08-01T10:17:34;10.50;;;5.78;;
5774;SDS011;2913;51.120;6.772;2022-08-01T10:20:06;9.25;;;5.32;;
5774;SDS011;2913;51.120;6.772;2022-08-01T10:22:32;15.27;;;6.18;;
5774;SDS011;2913;51.120;6.772;2022-08-01T10:25:00;8.13;;;5.07;;
5774;SDS011;2913;51.120;6.772;2022-08-01T10:27:29;8.45;;;5.18;;
5774;SDS011;2913;51.120;6.772;2022-08-01T10:29:59;7.18;;;5.20;;
5774;SDS011;2913;51.120;6.772;2022-08-01T10:32:32;8.35;;;5.10;;
5774;SDS011;2913;51.120;6.772;2022-08-01T10:35:04;8.95;;;5.32;;
5774;SDS011;2913;51.120;6.772;2022-08-01T10:37:30;13.00;;;5.97;;
5774;SDS011;2913;51.120;6.772;2022-08-01T10:40:00;12.35;;;5.30;;
5774;SDS011;2913;51.120;6.772;2022-08-01T10:42:26;14.18;;;4.93;;
5774;SDS011;2913;51.120;6.772;2022-08-01T10:44:52;7.85;;;4.75;;
5774;SDS011;2913;51.120;6.772;2022-08-01T10:47:23;7.07;;;4.22;;
5774;SDS011;2913;51.120;6.772;2022-08-01T10:52:32;9.48;;;4.72;;
5774;SDS011;2913;51.120;6.772;2022-08-01T10:55:04;6.72;;;4.22;;
5774;SDS011;2913;51.120;6.772;2022-08-01T10:57:41;7.75;;;4.55;;
5774;SDS011;2913;51.120;6.772;2022-08-01T11:00:10;7.07;;;4.20;;
5774;SDS011;2913;51.120;6.772;2022-08-01T11:02:44;6.00;;;4.10;;
5774;SDS011;2913;51.120;6.772;2022-08-01T11:05:26;8.48;;;3.60;;
5774;SDS011;2913;51.120;6.772;2022-08-01T11:08:01;8.15;;;4.47;;
5774;SDS011;2913;51.120;6.772;2022-08-01T11:10:46;8.85;;;4.18;;
5774;SDS011;2913;51.120;6.772;2022-08-01T11:13:12;7.22;;;3.40;;
5774;SDS011;2913;51.120;6.772;2022-08-01T11:15:39;7.35;;;3.10;;
5774;SDS011;2913;51.120;6.772;2022-08-01T11:18:29;4.32;;;3.08;;
5774;SDS011;2913;51.120;6.772;2022-08-01T11:20:58;5.40;;;3.17;;
5774;SDS011;2913;51.120;6.772;2022-08-01T11:23:30;6.85;;;3.45;;
5774;SDS011;2913;51.120;6.772;2022-08-01T11:26:13;5.82;;;3.25;;
5774;SDS011;2913;51.120;6.772;2022-08-01T11:28:40;11.43;;;2.90;;
5774;SDS011;2913;51.120;6.772;2022-08-01T11:41:09;7.70;;;3.10;;
5774;SDS011;2913;51.120;6.772;2022-08-01T11:54:37;5.68;;;2.63;;
5774;SDS011;2913;51.120;6.772;2022-08-01T11:57:19;5.57;;;2.40;;
5774;SDS011;2913;51.120;6.772;2022-08-01T12:07:20;8.95;;;2.10;;
5774;SDS011;2913;51.120;6.772;2022-08-01T12:09:47;3.17;;;1.60;;
5774;SDS011;2913;51.120;6.772;2022-08-01T12:12:16;6.97;;;2.20;;
5774;SDS011;2913;51.120;6.772;2022-08-01T12:14:42;5.80;;;2.10;;
5774;SDS011;2913;51.120;6.772;2022-08-01T12:17:09;2.08;;;1.70;;
5774;SDS011;2913;51.120;6.772;2022-08-01T12:19:35;2.40;;;1.58;;
5774;SDS011;2913;51.120;6.772;2022-08-01T12:22:08;1.83;;;1.42;;
5774;SDS011;2913;51.120;6.772;2022-08-01T12:24:36;3.60;;;1.80;;
5774;SDS011;2913;51.120;6.772;2022-08-01T12:27:04;2.30;;;1.70;;
5774;SDS011;2913;51.120;6.772;2022-08-01T12:29:31;4.93;;;1.67;;
5774;SDS011;2913;51.120;6.772;2022-08-01T12:34:53;3.05;;;1.60;;
5774;SDS011;2913;51.120;6.772;2022-08-01T12:37:20;2.50;;;1.60;;
5774;SDS011;2913;51.120;6.772;2022-08-01T12:39:47;3.25;;;1.52;;
5774;SDS011;2913;51.120;6.772;2022-08-01T12:42:13;2.22;;;1.60;;
5774;SDS011;2913;51.120;6.772;2022-08-01T12:44:42;2.35;;;1.60;;
5774;SDS011;2913;51.120;6.772;2022-08-01T12:47:09;1.33;;;1.23;;
5774;SDS011;2913;51.120;6.772;2022-08-01T12:49:36;2.50;;;1.30;;
5774;SDS011;2913;51.120;6.772;2022-08-01T12:52:02;2.08;;;1.58;;
5774;SDS011;2913;51.120;6.772;2022-08-01T12:54:31;4.80;;;1.48;;
5774;SDS011;2913;51.120;6.772;2022-08-01T12:57:26;8.18;;;1.92;;
5774;SDS011;2913;51.120;6.772;2022-08-01T13:02:41;2.50;;;1.40;;
5774;SDS011;2913;51.120;6.772;2022-08-01T13:05:07;3.70;;;1.38;;
5774;SDS011;2913;51.120;6.772;2022-08-01T13:10:13;5.82;;;1.40;;
5774;SDS011;2913;51.120;6.772;2022-08-01T13:12:40;3.28;;;1.60;;
5774;SDS011;2913;51.120;6.772;2022-08-01T13:17:45;2.25;;;1.30;;
5774;SDS011;2913;51.120;6.772;2022-08-01T13:20:20;4.05;;;1.48;;
5774;SDS011;2913;51.120;6.772;2022-08-01T13:23:09;2.35;;;1.45;;
5774;SDS011;2913;51.120;6.772;2022-08-01T13:28:18;4.97;;;1.20;;
5774;SDS011;2913;51.120;6.772;2022-08-01T13:33:17;3.45;;;1.50;;
5774;SDS011;2913;51.120;6.772;2022-08-01T13:35:43;3.60;;;1.67;;
5774;SDS011;2913;51.120;6.772;2022-08-01T13:38:08;4.03;;;2.00;;
5774;SDS011;2913;51.120;6.772;2022-08-01T13:40:34;6.10;;;2.20;;
5774;SDS011;2913;51.120;6.772;2022-08-01T13:43:00;5.35;;;2.10;;
5774;SDS011;2913;51.120;6.772;2022-08-01T13:45:27;3.67;;;1.92;;
5774;SDS011;2913;51.120;6.772;2022-08-01T13:47:53;3.47;;;1.77;;
5774;SDS011;2913;51.120;6.772;2022-08-01T13:50:19;5.43;;;1.90;;
5774;SDS011;2913;51.120;6.772;2022-08-01T13:52:44;2.40;;;1.52;;
5774;SDS011;2913;51.120;6.772;2022-08-01T13:55:14;2.60;;;1.77;;
5774;SDS011;2913;51.120;6.772;2022-08-01T13:57:40;7.00;;;2.00;;
5774;SDS011;2913;51.120;6.772;2022-08-01T14:00:06;6.90;;;1.98;;
5774;SDS011;2913;51.120;6.772;2022-08-01T14:02:36;3.15;;;2.00;;
5774;SDS011;2913;51.120;6.772;2022-08-01T14:05:01;2.38;;;1.80;;
5774;SDS011;2913;51.120;6.772;2022-08-01T14:07:27;5.22;;;2.00;;
5774;SDS011;2913;51.120;6.772;2022-08-01T14:09:53;3.78;;;2.45;;
5774;SDS011;2913;51.120;6.772;2022-08-01T14:12:18;5.40;;;1.70;;
5774;SDS011;2913;51.120;6.772;2022-08-01T14:14:44;4.85;;;1.65;;
5774;SDS011;2913;51.120;6.772;2022-08-01T14:17:10;3.70;;;1.90;;
5774;SDS011;2913;51.120;6.772;2022-08-01T14:19:38;2.42;;;1.70;;
5774;SDS011;2913;51.120;6.772;2022-08-01T14:22:03;4.55;;;2.05;;
5774;SDS011;2913;51.120;6.772;2022-08-01T14:24:29;4.35;;;2.42;;
5774;SDS011;2913;51.120;6.772;2022-08-01T14:26:54;3.83;;;2.80;;
5774;SDS011;2913;51.120;6.772;2022-08-01T14:29:20;5.00;;;2.35;;
5774;SDS011;2913;51.120;6.772;2022-08-01T14:31:46;6.18;;;2.60;;
5774;SDS011;2913;51.120;6.772;2022-08-01T14:34:13;3.60;;;2.33;;
5774;SDS011;2913;51.120;6.772;2022-08-01T14:36:41;5.38;;;2.05;;
5774;SDS011;2913;51.120;6.772;2022-08-01T14:39:07;4.13;;;1.90;;
5774;SDS011;2913;51.120;6.772;2022-08-01T14:41:33;11.18;;;2.22;;
5774;SDS011;2913;51.120;6.772;2022-08-01T14:43:58;7.32;;;2.20;;
5774;SDS011;2913;51.120;6.772;2022-08-01T14:46:24;6.68;;;2.25;;
5774;SDS011;2913;51.120;6.772;2022-08-01T14:48:52;3.70;;;2.53;;
5774;SDS011;2913;51.120;6.772;2022-08-01T14:51:23;7.10;;;2.00;;
5774;SDS011;2913;51.120;6.772;2022-08-01T14:53:51;4.88;;;2.08;;
5774;SDS011;2913;51.120;6.772;2022-08-01T14:56:17;3.95;;;2.00;;
5774;SDS011;2913;51.120;6.772;2022-08-01T14:58:43;7.65;;;2.28;;
5774;SDS011;2913;51.120;6.772;2022-08-01T15:01:09;3.40;;;1.95;;
5774;SDS011;2913;51.120;6.772;2022-08-01T15:03:37;2.88;;;2.10;;
5774;SDS011;2913;51.120;6.772;2022-08-01T15:06:02;4.25;;;2.00;;
5774;SDS011;2913;51.120;6.772;2022-08-01T15:08:28;6.97;;;2.28;;
5774;SDS011;2913;51.120;6.772;2022-08-01T15:10:57;5.15;;;2.40;;
5774;SDS011;2913;51.120;6.772;2022-08-01T15:13:22;1.92;;;1.75;;
5774;SDS011;2913;51.120;6.772;2022-08-01T15:15:51;7.93;;;2.42;;
5774;SDS011;2913;51.120;6.772;2022-08-01T15:18:16;3.88;;;2.33;;
5774;SDS011;2913;51.120;6.772;2022-08-01T15:20:44;3.80;;;2.33;;
5774;SDS011;2913;51.120;6.772;2022-08-01T15:23:10;4.95;;;2.53;;
5774;SDS011;2913;51.120;6.772;2022-08-01T15:25:36;4.20;;;2.97;;
5774;SDS011;2913;51.120;6.772;2022-08-01T15:28:04;6.30;;;2.53;;
5774;SDS011;2913;51.120;6.772;2022-08-01T15:30:29;9.82;;;3.05;;
5774;SDS011;2913;51.120;6.772;2022-08-01T15:33:00;16.83;;;3.45;;
5774;SDS011;2913;51.120;6.772;2022-08-01T15:35:26;11.63;;;3.28;;
5774;SDS011;2913;51.120;6.772;2022-08-01T15:37:51;5.15;;;2.78;;
5774;SDS011;2913;51.120;6.772;2022-08-01T15:40:17;4.75;;;2.40;;
5774;SDS011;2913;51.120;6.772;2022-08-01T15:42:43;19.95;;;2.97;;
5774;SDS011;2913;51.120;6.772;2022-08-01T15:45:09;17.60;;;3.00;;
5774;SDS011;2913;51.120;6.772;2022-08-01T15:47:37;5.57;;;2.55;;
5774;SDS011;2913;51.120;6.772;2022-08-01T15:50:03;3.63;;;2.45;;
5774;SDS011;2913;51.120;6.772;2022-08-01T15:52:31;7.72;;;2.45;;
5774;SDS011;2913;51.120;6.772;2022-08-01T15:54:57;6.47;;;2.58;;
5774;SDS011;2913;51.120;6.772;2022-08-01T15:57:23;4.40;;;2.55;;
5774;SDS011;2913;51.120;6.772;2022-08-01T15:59:48;3.78;;;2.13;;
5774;SDS011;2913;51.120;6.772;2022-08-01T16:02:14;7.53;;;2.55;;
5774;SDS011;2913;51.120;6.772;2022-08-01T16:04:42;5.65;;;2.25;;
5774;SDS011;2913;51.120;6.772;2022-08-01T16:07:10;8.55;;;2.70;;
5774;SDS011;2913;51.120;6.772;2022-08-01T16:09:36;12.60;;;2.90;;
5774;SDS011;2913;51.120;6.772;2022-08-01T16:12:02;8.35;;;2.53;;
5774;SDS011;2913;51.120;6.772;2022-08-01T16:14:28;6.57;;;3.05;;